PWSweather.com
Personal Weather Stations
Station Observations
RAINMAN1
Jacksonville, FL 32224

Jacksonville, FL 32224

Lat: 30.28041649, Lon: -81.46911621

Elevation: 26

Station Type: Tycon TP1080WC

Latest ConditionsUpdated 6:20:02 PM EDT Tuesday, Sep 23, 2014
Currently Today's Max Today's Min Today's Average
Temperature 78.6°F25.9°C 79.9°F26.6°C 71.1°F21.7°C 74.0°F23.3°C
Dew Point 72.4°F22.4°C 76.2°F24.6°C 70.8°F21.6°C 73.2°F22.9°C
Winds 8.4 mph N13.5 kmh N 11.4 mph NE18.3 kmh NE - 4.9 mph 7.9 kmh
Wind Gusts 10.7 mph17.2 kmh 18.3 mph29.5 kmh - -
Humidity 81% 99% 81% 97%
Pressure 29.71 in1006.1 mb 29.75 in1007.5 mb 29.66 in1004.4 mb -
Precipitation - 0.18 in4.6 mm - -
Hour Temp Dew Point Humidity Winds Wind Gusts Pressure Precip Precip Rate Daily Precip Total
06:20 PM 78.6°F25.9°C 72.4°F22.4°C 81% 8.4 mph N13.5 kmh N 10.7 mph17.2 kmh 29.71 in1006.1 mb 0.00 in0.0 mm 0.00 in/hr0.0 mm/hr 0.18 in4.6 mm
06:15 PM 78.6°F25.9°C 72.4°F22.4°C 81% 7.6 mph N12.2 kmh N 14.5 mph23.3 kmh 29.71 in1006.1 mb 0.00 in0.0 mm 0.00 in/hr0.0 mm/hr 0.18 in4.6 mm
06:10 PM 78.4°F25.8°C 72.2°F22.3°C 81% 8.7 mph NNE14.0 kmh NNE 14.5 mph23.3 kmh 29.70 in1005.8 mb 0.00 in0.0 mm 0.00 in/hr0.0 mm/hr 0.18 in4.6 mm
06:05 PM 77.7°F25.4°C 73.2°F22.9°C 86% 11.2 mph NNE18.0 kmh NNE 14.5 mph23.3 kmh 29.70 in1005.8 mb 0.00 in0.0 mm 0.00 in/hr0.0 mm/hr 0.18 in4.6 mm
06:00 PM 78.1°F25.6°C 72.9°F22.7°C 84% 11.2 mph NNE18.0 kmh NNE 14.5 mph23.3 kmh 29.70 in1005.8 mb 0.00 in0.0 mm 0.00 in/hr0.0 mm/hr 0.18 in4.6 mm
05:55 PM 78.3°F25.7°C 72.7°F22.6°C 83% 10.3 mph NNE16.6 kmh NNE 14.5 mph23.3 kmh 29.70 in1005.8 mb 0.00 in0.0 mm 0.00 in/hr0.0 mm/hr 0.18 in4.6 mm
05:50 PM 79.3°F26.3°C 73.1°F22.8°C 81% 9.5 mph NNE15.3 kmh NNE 13.6 mph21.9 kmh 29.71 in1006.1 mb 0.00 in0.0 mm 0.00 in/hr0.0 mm/hr 0.18 in4.6 mm
05:45 PM 79.9°F26.6°C 73.6°F23.1°C 81% 8.7 mph NE14.0 kmh NE 13.0 mph20.9 kmh 29.70 in1005.8 mb 0.00 in0.0 mm 0.00 in/hr0.0 mm/hr 0.18 in4.6 mm
05:40 PM 78.6°F25.9°C 73.8°F23.2°C 85% 7.1 mph NE11.4 kmh NE 13.0 mph20.9 kmh 29.70 in1005.8 mb 0.00 in0.0 mm 0.00 in/hr0.0 mm/hr 0.18 in4.6 mm
05:35 PM 76.8°F24.9°C 74.7°F23.7°C 93% 6.0 mph NNE9.7 kmh NNE 8.3 mph13.4 kmh 29.70 in1005.8 mb 0.00 in0.0 mm 0.00 in/hr0.0 mm/hr 0.18 in4.6 mm
05:30 PM 76.6°F24.8°C 74.8°F23.8°C 94% 5.9 mph NE9.5 kmh NE 8.3 mph13.4 kmh 29.70 in1005.8 mb 0.00 in0.0 mm 0.00 in/hr0.0 mm/hr 0.18 in4.6 mm
05:25 PM 76.8°F24.9°C 74.4°F23.6°C 92% 7.4 mph ENE11.9 kmh ENE 14.5 mph23.3 kmh 29.70 in1005.8 mb 0.01 in0.3 mm 0.00 in/hr0.0 mm/hr 0.18 in4.6 mm
05:20 PM 77.0°F25.0°C 73.9°F23.3°C 90% 8.3 mph NE13.4 kmh NE 14.5 mph23.3 kmh 29.70 in1005.8 mb 0.05 in1.3 mm 0.00 in/hr0.0 mm/hr 0.18 in4.6 mm
05:15 PM 77.2°F25.1°C 74.1°F23.4°C 90% 6.5 mph NE10.5 kmh NE 14.5 mph23.3 kmh 29.70 in1005.8 mb 0.05 in1.3 mm 0.00 in/hr0.0 mm/hr 0.18 in4.6 mm
05:10 PM 77.0°F25.0°C 74.9°F23.8°C 93% 5.1 mph NE8.2 kmh NE 9.2 mph14.8 kmh 29.70 in1005.8 mb 0.05 in1.3 mm 0.00 in/hr0.0 mm/hr 0.18 in4.6 mm
05:05 PM 77.0°F25.0°C 74.6°F23.7°C 92% 4.3 mph NNE6.9 kmh NNE 9.2 mph14.8 kmh 29.71 in1006.1 mb 0.05 in1.3 mm 0.00 in/hr0.0 mm/hr 0.18 in4.6 mm
05:00 PM 77.0°F25.0°C 75.5°F24.2°C 95% 4.9 mph NE7.9 kmh NE 8.3 mph13.4 kmh 29.71 in1006.1 mb 0.05 in1.3 mm 0.00 in/hr0.0 mm/hr 0.18 in4.6 mm
04:55 PM 76.1°F24.5°C 74.9°F23.8°C 96% 6.7 mph NNE10.8 kmh NNE 9.8 mph15.8 kmh 29.70 in1005.8 mb 0.05 in1.3 mm 0.00 in/hr0.0 mm/hr 0.18 in4.6 mm
04:50 PM 75.2°F24.0°C 74.0°F23.3°C 96% 6.6 mph NNE10.6 kmh NNE 9.8 mph15.8 kmh 29.70 in1005.8 mb 0.05 in1.3 mm 0.00 in/hr0.0 mm/hr 0.18 in4.6 mm
04:45 PM 74.8°F23.8°C 74.3°F23.5°C 98% 6.0 mph N9.7 kmh N 8.3 mph13.4 kmh 29.70 in1005.8 mb 0.05 in1.3 mm 0.00 in/hr0.0 mm/hr 0.18 in4.6 mm
04:40 PM 74.3°F23.5°C 74.1°F23.4°C 99% 7.1 mph NNE11.4 kmh NNE 9.8 mph15.8 kmh 29.70 in1005.8 mb 0.05 in1.3 mm 0.00 in/hr0.0 mm/hr 0.18 in4.6 mm
04:35 PM 73.9°F23.3°C 73.7°F23.2°C 99% 7.1 mph NE11.4 kmh NE 9.8 mph15.8 kmh 29.71 in1006.1 mb 0.05 in1.3 mm 0.00 in/hr0.0 mm/hr 0.18 in4.6 mm
04:30 PM 73.6°F23.1°C 73.3°F22.9°C 99% 8.7 mph N14.0 kmh N 14.5 mph23.3 kmh 29.71 in1006.1 mb 0.05 in1.3 mm 0.24 in/hr6.1 mm/hr 0.18 in4.6 mm
04:25 PM 74.1°F23.4°C 72.6°F22.6°C 95% 11.2 mph N18.0 kmh N 15.9 mph25.6 kmh 29.71 in1006.1 mb 0.03 in0.8 mm 0.36 in/hr9.1 mm/hr 0.16 in4.1 mm
04:20 PM 75.9°F24.4°C 72.5°F22.5°C 89% 10.5 mph NE16.9 kmh NE 15.9 mph25.6 kmh 29.71 in1006.1 mb 0.00 in0.0 mm 0.00 in/hr0.0 mm/hr 0.13 in3.3 mm
04:15 PM 77.2°F25.1°C 73.7°F23.2°C 89% 10.4 mph NE16.7 kmh NE 15.2 mph24.5 kmh 29.71 in1006.1 mb 0.00 in0.0 mm 0.00 in/hr0.0 mm/hr 0.13 in3.3 mm
04:10 PM 77.2°F25.1°C 74.1°F23.4°C 90% 11.1 mph N17.9 kmh N 15.2 mph24.5 kmh 29.70 in1005.8 mb 0.00 in0.0 mm 0.00 in/hr0.0 mm/hr 0.13 in3.3 mm
04:05 PM 77.0°F25.0°C 74.2°F23.4°C 91% 11.0 mph NNE17.7 kmh NNE 15.2 mph24.5 kmh 29.70 in1005.8 mb 0.00 in0.0 mm 0.00 in/hr0.0 mm/hr 0.13 in3.3 mm
04:00 PM 77.0°F25.0°C 74.2°F23.4°C 91% 10.0 mph NNE16.1 kmh NNE 15.2 mph24.5 kmh 29.70 in1005.8 mb 0.00 in0.0 mm 0.00 in/hr0.0 mm/hr 0.13 in3.3 mm
03:55 PM 76.8°F24.9°C 74.4°F23.6°C 92% 10.6 mph NNE17.1 kmh NNE 18.3 mph29.5 kmh 29.71 in1006.1 mb 0.00 in0.0 mm 0.00 in/hr0.0 mm/hr 0.13 in3.3 mm
03:50 PM 77.0°F25.0°C 74.9°F23.8°C 93% 11.4 mph NE18.3 kmh NE 18.3 mph29.5 kmh 29.71 in1006.1 mb 0.00 in0.0 mm 0.00 in/hr0.0 mm/hr 0.13 in3.3 mm
03:45 PM 76.8°F24.9°C 74.4°F23.6°C 92% 10.6 mph NE17.1 kmh NE 14.5 mph23.3 kmh 29.71 in1006.1 mb 0.00 in0.0 mm 0.00 in/hr0.0 mm/hr 0.13 in3.3 mm
03:40 PM 77.0°F25.0°C 74.9°F23.8°C 93% 11.2 mph NE18.0 kmh NE 14.5 mph23.3 kmh 29.71 in1006.1 mb 0.00 in0.0 mm 0.00 in/hr0.0 mm/hr 0.13 in3.3 mm
03:35 PM 76.6°F24.8°C 74.8°F23.8°C 94% 11.2 mph NNE18.0 kmh NNE 14.5 mph23.3 kmh 29.71 in1006.1 mb 0.00 in0.0 mm 0.00 in/hr0.0 mm/hr 0.13 in3.3 mm
03:30 PM 76.1°F24.5°C 74.6°F23.7°C 95% 10.5 mph NNE16.9 kmh NNE 15.2 mph24.5 kmh 29.71 in1006.1 mb 0.00 in0.0 mm 0.00 in/hr0.0 mm/hr 0.13 in3.3 mm
03:25 PM 75.9°F24.4°C 75.1°F23.9°C 97% 9.5 mph NNE15.3 kmh NNE 15.2 mph24.5 kmh 29.72 in1006.4 mb 0.00 in0.0 mm 0.00 in/hr0.0 mm/hr 0.13 in3.3 mm
03:20 PM 75.4°F24.1°C 74.5°F23.6°C 97% 7.0 mph NE11.3 kmh NE 15.2 mph24.5 kmh 29.71 in1006.1 mb 0.00 in0.0 mm 0.00 in/hr0.0 mm/hr 0.13 in3.3 mm
03:15 PM 75.2°F24.0°C 74.7°F23.7°C 98% 6.7 mph NNE10.8 kmh NNE 13.0 mph20.9 kmh 29.72 in1006.4 mb 0.00 in0.0 mm 0.00 in/hr0.0 mm/hr 0.13 in3.3 mm
03:10 PM 75.6°F24.2°C 75.0°F23.9°C 98% 8.9 mph N14.3 kmh N 10.7 mph17.2 kmh 29.72 in1006.4 mb 0.01 in0.3 mm 0.00 in/hr0.0 mm/hr 0.13 in3.3 mm
03:05 PM 76.6°F24.8°C 75.5°F24.2°C 96% 9.3 mph NNE15.0 kmh NNE 13.6 mph21.9 kmh 29.72 in1006.4 mb 0.01 in0.3 mm 0.00 in/hr0.0 mm/hr 0.13 in3.3 mm
03:00 PM 76.6°F24.8°C 75.5°F24.2°C 96% 9.3 mph NE15.0 kmh NE 13.6 mph21.9 kmh 29.72 in1006.4 mb 0.01 in0.3 mm 0.00 in/hr0.0 mm/hr 0.13 in3.3 mm
02:55 PM 77.2°F25.1°C 76.0°F24.4°C 96% 9.6 mph NE15.4 kmh NE 13.6 mph21.9 kmh 29.72 in1006.4 mb 0.01 in0.3 mm 0.00 in/hr0.0 mm/hr 0.13 in3.3 mm
02:50 PM 76.3°F24.6°C 76.0°F24.4°C 99% 8.3 mph NE13.4 kmh NE 13.0 mph20.9 kmh 29.72 in1006.4 mb 0.03 in0.8 mm 0.00 in/hr0.0 mm/hr 0.13 in3.3 mm
02:45 PM 75.4°F24.1°C 75.1°F23.9°C 99% 8.3 mph N13.4 kmh N 15.2 mph24.5 kmh 29.72 in1006.4 mb 0.03 in0.8 mm 0.00 in/hr0.0 mm/hr 0.13 in3.3 mm
02:40 PM 75.2°F24.0°C 75.0°F23.9°C 99% 9.3 mph N15.0 kmh N 15.2 mph24.5 kmh 29.72 in1006.4 mb 0.03 in0.8 mm 0.00 in/hr0.0 mm/hr 0.13 in3.3 mm
02:35 PM 75.4°F24.1°C 75.1°F23.9°C 99% 8.4 mph NNE13.5 kmh NNE 13.0 mph20.9 kmh 29.73 in1006.8 mb 0.03 in0.8 mm 0.00 in/hr0.0 mm/hr 0.13 in3.3 mm
02:30 PM 75.6°F24.2°C 75.3°F24.1°C 99% 7.9 mph NE12.7 kmh NE 13.0 mph20.9 kmh 29.73 in1006.8 mb 0.03 in0.8 mm 0.00 in/hr0.0 mm/hr 0.13 in3.3 mm
02:25 PM 75.4°F24.1°C 75.1°F23.9°C 99% 7.7 mph NNE12.4 kmh NNE 13.0 mph20.9 kmh 29.73 in1006.8 mb 0.03 in0.8 mm 0.00 in/hr0.0 mm/hr 0.13 in3.3 mm
02:20 PM 75.0°F23.9°C 74.8°F23.8°C 99% 6.8 mph NE10.9 kmh NE 12.1 mph19.5 kmh 29.73 in1006.8 mb 0.03 in0.8 mm 0.24 in/hr6.1 mm/hr 0.13 in3.3 mm
02:15 PM 75.0°F23.9°C 74.8°F23.8°C 99% 7.3 mph NE11.7 kmh NE 9.8 mph15.8 kmh 29.73 in1006.8 mb 0.01 in0.3 mm 0.00 in/hr0.0 mm/hr 0.11 in2.8 mm
02:10 PM 75.0°F23.9°C 74.8°F23.8°C 99% 8.5 mph NNE13.7 kmh NNE 9.2 mph14.8 kmh 29.73 in1006.8 mb 0.01 in0.3 mm 0.00 in/hr0.0 mm/hr 0.11 in2.8 mm
02:05 PM 74.7°F23.7°C 74.4°F23.6°C 99% 7.7 mph N12.4 kmh N 9.2 mph14.8 kmh 29.74 in1007.1 mb 0.01 in0.3 mm 0.00 in/hr0.0 mm/hr 0.11 in2.8 mm
02:00 PM 74.7°F23.7°C 74.4°F23.6°C 99% 6.6 mph NNE10.6 kmh NNE 9.2 mph14.8 kmh 29.74 in1007.1 mb 0.01 in0.3 mm 0.00 in/hr0.0 mm/hr 0.11 in2.8 mm
01:55 PM 74.8°F23.8°C 74.6°F23.7°C 99% 6.0 mph N9.7 kmh N 8.3 mph13.4 kmh 29.74 in1007.1 mb 0.01 in0.3 mm 0.12 in/hr3.0 mm/hr 0.11 in2.8 mm
01:50 PM 75.2°F24.0°C 75.0°F23.9°C 99% 4.9 mph NNE7.9 kmh NNE 8.3 mph13.4 kmh 29.74 in1007.1 mb 0.00 in0.0 mm 0.00 in/hr0.0 mm/hr 0.10 in2.5 mm
01:45 PM 75.4°F24.1°C 74.8°F23.8°C 98% 5.9 mph NNE9.5 kmh NNE 11.4 mph18.3 kmh 29.74 in1007.1 mb 0.00 in0.0 mm 0.00 in/hr0.0 mm/hr 0.10 in2.5 mm
01:40 PM 75.6°F24.2°C 74.7°F23.7°C 97% 7.4 mph N11.9 kmh N 11.4 mph18.3 kmh 29.74 in1007.1 mb 0.00 in0.0 mm 0.00 in/hr0.0 mm/hr 0.10 in2.5 mm
01:35 PM 75.6°F24.2°C 74.4°F23.6°C 96% 8.3 mph NNE13.4 kmh NNE 11.4 mph18.3 kmh 29.74 in1007.1 mb 0.00 in0.0 mm 0.00 in/hr0.0 mm/hr 0.10 in2.5 mm
01:30 PM 76.1°F24.5°C 74.3°F23.5°C 94% 8.8 mph NE14.2 kmh NE 11.4 mph18.3 kmh 29.74 in1007.1 mb 0.00 in0.0 mm 0.00 in/hr0.0 mm/hr 0.10 in2.5 mm
01:25 PM 77.0°F25.0°C 74.9°F23.8°C 93% 9.4 mph NNE15.1 kmh NNE 14.5 mph23.3 kmh 29.74 in1007.1 mb 0.00 in0.0 mm 0.00 in/hr0.0 mm/hr 0.10 in2.5 mm
01:20 PM 77.2°F25.1°C 75.1°F23.9°C 93% 8.3 mph NNE13.4 kmh NNE 14.5 mph23.3 kmh 29.74 in1007.1 mb 0.00 in0.0 mm 0.00 in/hr0.0 mm/hr 0.10 in2.5 mm
01:15 PM 77.0°F25.0°C 74.9°F23.8°C 93% 7.1 mph NNE11.4 kmh NNE 13.0 mph20.9 kmh 29.74 in1007.1 mb 0.00 in0.0 mm 0.00 in/hr0.0 mm/hr 0.10 in2.5 mm
01:10 PM 76.6°F24.8°C 74.8°F23.8°C 94% 6.7 mph NNE10.8 kmh NNE 9.8 mph15.8 kmh 29.74 in1007.1 mb 0.00 in0.0 mm 0.00 in/hr0.0 mm/hr 0.10 in2.5 mm
01:05 PM 77.5°F25.3°C 76.1°F24.5°C 95% 5.5 mph NE8.9 kmh NE 7.6 mph12.2 kmh 29.74 in1007.1 mb 0.00 in0.0 mm 0.00 in/hr0.0 mm/hr 0.10 in2.5 mm
01:00 PM 77.5°F25.3°C 76.1°F24.5°C 95% 5.9 mph NNE9.5 kmh NNE 9.8 mph15.8 kmh 29.74 in1007.1 mb 0.00 in0.0 mm 0.00 in/hr0.0 mm/hr 0.10 in2.5 mm
12:55 PM 77.4°F25.2°C 76.2°F24.6°C 96% 6.5 mph NNE10.5 kmh NNE 9.8 mph15.8 kmh 29.74 in1007.1 mb 0.00 in0.0 mm 0.00 in/hr0.0 mm/hr 0.10 in2.5 mm
12:50 PM 77.0°F25.0°C 76.1°F24.5°C 97% 7.7 mph NE12.4 kmh NE 12.1 mph19.5 kmh 29.75 in1007.5 mb 0.00 in0.0 mm 0.00 in/hr0.0 mm/hr 0.10 in2.5 mm
12:45 PM 76.8°F24.9°C 76.0°F24.4°C 97% 8.0 mph NNE12.9 kmh NNE 13.0 mph20.9 kmh 29.75 in1007.5 mb 0.00 in0.0 mm 0.00 in/hr0.0 mm/hr 0.10 in2.5 mm
12:40 PM 77.0°F25.0°C 75.8°F24.3°C 96% 6.9 mph N11.1 kmh N 13.0 mph20.9 kmh 29.75 in1007.5 mb 0.00 in0.0 mm 0.00 in/hr0.0 mm/hr 0.10 in2.5 mm
12:35 PM 77.0°F25.0°C 75.8°F24.3°C 96% 6.7 mph N10.8 kmh N 10.7 mph17.2 kmh 29.74 in1007.1 mb 0.00 in0.0 mm 0.00 in/hr0.0 mm/hr 0.10 in2.5 mm
12:30 PM 77.4°F25.2°C 75.9°F24.4°C 95% 7.0 mph NNE11.3 kmh NNE 11.4 mph18.3 kmh 29.75 in1007.5 mb 0.00 in0.0 mm 0.00 in/hr0.0 mm/hr 0.10 in2.5 mm
12:25 PM 77.4°F25.2°C 75.2°F24.0°C 93% 7.8 mph NE12.6 kmh NE 11.4 mph18.3 kmh 29.74 in1007.1 mb 0.00 in0.0 mm 0.00 in/hr0.0 mm/hr 0.10 in2.5 mm
12:20 PM 77.0°F25.0°C 74.9°F23.8°C 93% 7.9 mph NNE12.7 kmh NNE 11.4 mph18.3 kmh 29.75 in1007.5 mb 0.00 in0.0 mm 0.00 in/hr0.0 mm/hr 0.10 in2.5 mm
12:15 PM 76.8°F24.9°C 74.7°F23.7°C 93% 6.7 mph N10.8 kmh N 11.4 mph18.3 kmh 29.75 in1007.5 mb 0.00 in0.0 mm 0.00 in/hr0.0 mm/hr 0.10 in2.5 mm
12:10 PM 76.5°F24.7°C 74.7°F23.7°C 94% 5.6 mph NE9.0 kmh NE 11.4 mph18.3 kmh 29.75 in1007.5 mb 0.00 in0.0 mm 0.00 in/hr0.0 mm/hr 0.10 in2.5 mm
12:05 PM 75.9°F24.4°C 74.4°F23.6°C 95% 5.5 mph NE8.9 kmh NE 9.2 mph14.8 kmh 29.75 in1007.5 mb 0.00 in0.0 mm 0.00 in/hr0.0 mm/hr 0.10 in2.5 mm
12:00 PM 75.9°F24.4°C 74.4°F23.6°C 95% 6.5 mph NE10.5 kmh NE 9.8 mph15.8 kmh 29.75 in1007.5 mb 0.00 in0.0 mm 0.00 in/hr0.0 mm/hr 0.10 in2.5 mm
11:55 AM 75.7°F24.3°C 74.6°F23.7°C 96% 6.7 mph NNE10.8 kmh NNE 9.8 mph15.8 kmh 29.75 in1007.5 mb 0.00 in0.0 mm 0.00 in/hr0.0 mm/hr 0.10 in2.5 mm
11:50 AM 75.6°F24.2°C 74.7°F23.7°C 97% 7.6 mph N12.2 kmh N 13.0 mph20.9 kmh 29.75 in1007.5 mb 0.00 in0.0 mm 0.00 in/hr0.0 mm/hr 0.10 in2.5 mm
11:45 AM 75.4°F24.1°C 74.2°F23.4°C 96% 9.0 mph NNE14.5 kmh NNE 13.0 mph20.9 kmh 29.75 in1007.5 mb 0.00 in0.0 mm 0.00 in/hr0.0 mm/hr 0.10 in2.5 mm
11:40 AM 75.6°F24.2°C 74.7°F23.7°C 97% 8.5 mph NNE13.7 kmh NNE 12.1 mph19.5 kmh 29.75 in1007.5 mb 0.00 in0.0 mm 0.00 in/hr0.0 mm/hr 0.10 in2.5 mm
11:35 AM 75.6°F24.2°C 74.7°F23.7°C 97% 8.6 mph NNE13.8 kmh NNE 11.4 mph18.3 kmh 29.75 in1007.5 mb 0.00 in0.0 mm 0.00 in/hr0.0 mm/hr 0.10 in2.5 mm
11:30 AM 75.9°F24.4°C 75.4°F24.1°C 98% 9.0 mph NE14.5 kmh NE 12.1 mph19.5 kmh 29.75 in1007.5 mb 0.00 in0.0 mm 0.00 in/hr0.0 mm/hr 0.10 in2.5 mm
11:25 AM 75.9°F24.4°C 75.4°F24.1°C 98% 9.6 mph NE15.4 kmh NE 12.1 mph19.5 kmh 29.75 in1007.5 mb 0.00 in0.0 mm 0.00 in/hr0.0 mm/hr 0.10 in2.5 mm
11:20 AM 75.4°F24.1°C 75.1°F23.9°C 99% 9.7 mph NE15.6 kmh NE 13.0 mph20.9 kmh 29.75 in1007.5 mb 0.00 in0.0 mm 0.00 in/hr0.0 mm/hr 0.10 in2.5 mm
11:15 AM 75.0°F23.9°C 74.8°F23.8°C 99% 8.6 mph NNE13.8 kmh NNE 13.0 mph20.9 kmh 29.75 in1007.5 mb 0.00 in0.0 mm 0.00 in/hr0.0 mm/hr 0.10 in2.5 mm
11:10 AM 74.5°F23.6°C 74.2°F23.4°C 99% 7.7 mph N12.4 kmh N 8.3 mph13.4 kmh 29.75 in1007.5 mb 0.00 in0.0 mm 0.00 in/hr0.0 mm/hr 0.10 in2.5 mm
11:05 AM 73.8°F23.2°C 73.5°F23.1°C 99% 7.4 mph N11.9 kmh N 14.5 mph23.3 kmh 29.75 in1007.5 mb 0.00 in0.0 mm 0.00 in/hr0.0 mm/hr 0.10 in2.5 mm
11:00 AM 73.8°F23.2°C 73.5°F23.1°C 99% 10.2 mph NNE16.4 kmh NNE 17.4 mph28.0 kmh 29.75 in1007.5 mb 0.00 in0.0 mm 0.00 in/hr0.0 mm/hr 0.10 in2.5 mm
10:55 AM 73.0°F22.8°C 72.8°F22.7°C 99% 11.1 mph NE17.9 kmh NE 17.4 mph28.0 kmh 29.75 in1007.5 mb 0.00 in0.0 mm 0.00 in/hr0.0 mm/hr 0.10 in2.5 mm
10:50 AM 73.0°F22.8°C 72.8°F22.7°C 99% 9.0 mph NE14.5 kmh NE 12.1 mph19.5 kmh 29.75 in1007.5 mb 0.00 in0.0 mm 0.00 in/hr0.0 mm/hr 0.10 in2.5 mm
10:45 AM 72.9°F22.7°C 72.6°F22.6°C 99% 8.4 mph NE13.5 kmh NE 12.1 mph19.5 kmh 29.75 in1007.5 mb 0.00 in0.0 mm 0.00 in/hr0.0 mm/hr 0.10 in2.5 mm
10:40 AM 72.9°F22.7°C 72.6°F22.6°C 99% 8.0 mph NE12.9 kmh NE 12.1 mph19.5 kmh 29.74 in1007.1 mb 0.00 in0.0 mm 0.00 in/hr0.0 mm/hr 0.10 in2.5 mm
10:35 AM 72.7°F22.6°C 72.4°F22.4°C 99% 8.5 mph NNE13.7 kmh NNE 12.1 mph19.5 kmh 29.74 in1007.1 mb 0.00 in0.0 mm 0.00 in/hr0.0 mm/hr 0.10 in2.5 mm
10:30 AM 72.5°F22.5°C 72.2°F22.3°C 99% 7.8 mph NNE12.6 kmh NNE 12.1 mph19.5 kmh 29.74 in1007.1 mb 0.00 in0.0 mm 0.00 in/hr0.0 mm/hr 0.10 in2.5 mm
10:25 AM 72.3°F22.4°C 72.1°F22.3°C 99% 7.7 mph NNE12.4 kmh NNE 12.1 mph19.5 kmh 29.74 in1007.1 mb 0.00 in0.0 mm 0.00 in/hr0.0 mm/hr 0.10 in2.5 mm
10:20 AM 72.3°F22.4°C 72.1°F22.3°C 99% 7.6 mph NNE12.2 kmh NNE 12.1 mph19.5 kmh 29.74 in1007.1 mb 0.00 in0.0 mm 0.00 in/hr0.0 mm/hr 0.10 in2.5 mm
10:15 AM 72.3°F22.4°C 72.1°F22.3°C 99% 7.0 mph NE11.3 kmh NE 12.1 mph19.5 kmh 29.74 in1007.1 mb 0.00 in0.0 mm 0.00 in/hr0.0 mm/hr 0.10 in2.5 mm
10:10 AM 72.0°F22.2°C 71.7°F22.1°C 99% 6.3 mph NE10.1 kmh NE 12.1 mph19.5 kmh 29.74 in1007.1 mb 0.00 in0.0 mm 0.00 in/hr0.0 mm/hr 0.10 in2.5 mm
10:05 AM 72.0°F22.2°C 71.7°F22.1°C 99% 4.6 mph NE7.4 kmh NE 5.4 mph8.7 kmh 29.74 in1007.1 mb 0.00 in0.0 mm 0.00 in/hr0.0 mm/hr 0.10 in2.5 mm
10:00 AM 72.0°F22.2°C 71.7°F22.1°C 99% 3.3 mph N5.3 kmh N 5.4 mph8.7 kmh 29.74 in1007.1 mb 0.00 in0.0 mm 0.00 in/hr0.0 mm/hr 0.10 in2.5 mm
09:55 AM 72.1°F22.3°C 71.9°F22.2°C 99% 4.2 mph NNE6.8 kmh NNE 9.8 mph15.8 kmh 29.74 in1007.1 mb 0.00 in0.0 mm 0.00 in/hr0.0 mm/hr 0.10 in2.5 mm
09:50 AM 72.3°F22.4°C 72.1°F22.3°C 99% 6.9 mph N11.1 kmh N 12.1 mph19.5 kmh 29.74 in1007.1 mb 0.00 in0.0 mm 0.00 in/hr0.0 mm/hr 0.10 in2.5 mm
09:45 AM 72.3°F22.4°C 72.1°F22.3°C 99% 8.0 mph N12.9 kmh N 12.1 mph19.5 kmh 29.74 in1007.1 mb 0.00 in0.0 mm 0.00 in/hr0.0 mm/hr 0.10 in2.5 mm
09:40 AM 72.9°F22.7°C 72.6°F22.6°C 99% 8.2 mph NNE13.2 kmh NNE 11.4 mph18.3 kmh 29.74 in1007.1 mb 0.00 in0.0 mm 0.00 in/hr0.0 mm/hr 0.10 in2.5 mm
09:35 AM 73.2°F22.9°C 73.0°F22.8°C 99% 7.0 mph NNE11.3 kmh NNE 11.4 mph18.3 kmh 29.74 in1007.1 mb 0.00 in0.0 mm 0.00 in/hr0.0 mm/hr 0.10 in2.5 mm
09:30 AM 73.6°F23.1°C 73.3°F22.9°C 99% 5.8 mph NNE9.3 kmh NNE 9.2 mph14.8 kmh 29.74 in1007.1 mb 0.00 in0.0 mm 0.00 in/hr0.0 mm/hr 0.10 in2.5 mm
09:25 AM 73.4°F23.0°C 73.2°F22.9°C 99% 6.1 mph NE9.8 kmh NE 9.2 mph14.8 kmh 29.74 in1007.1 mb 0.00 in0.0 mm 0.00 in/hr0.0 mm/hr 0.10 in2.5 mm
09:20 AM 73.4°F23.0°C 73.2°F22.9°C 99% 5.0 mph NNE8.0 kmh NNE 9.2 mph14.8 kmh 29.73 in1006.8 mb 0.00 in0.0 mm 0.00 in/hr0.0 mm/hr 0.10 in2.5 mm
09:15 AM 73.0°F22.8°C 72.8°F22.7°C 99% 5.6 mph NE9.0 kmh NE 8.3 mph13.4 kmh 29.73 in1006.8 mb 0.00 in0.0 mm 0.00 in/hr0.0 mm/hr 0.10 in2.5 mm
09:10 AM 72.7°F22.6°C 72.4°F22.4°C 99% 7.8 mph NE12.6 kmh NE 8.3 mph13.4 kmh 29.73 in1006.8 mb 0.00 in0.0 mm 0.00 in/hr0.0 mm/hr 0.10 in2.5 mm
09:05 AM 72.5°F22.5°C 72.2°F22.3°C 99% 7.5 mph NE12.1 kmh NE 9.2 mph14.8 kmh 29.73 in1006.8 mb 0.00 in0.0 mm 0.00 in/hr0.0 mm/hr 0.10 in2.5 mm
09:00 AM 72.5°F22.5°C 72.2°F22.3°C 99% 5.9 mph NNE9.5 kmh NNE 9.2 mph14.8 kmh 29.72 in1006.4 mb 0.00 in0.0 mm 0.00 in/hr0.0 mm/hr 0.10 in2.5 mm
08:55 AM 72.3°F22.4°C 72.1°F22.3°C 99% 4.8 mph N7.7 kmh N 6.9 mph11.1 kmh 29.72 in1006.4 mb 0.00 in0.0 mm 0.00 in/hr0.0 mm/hr 0.10 in2.5 mm
08:50 AM 72.5°F22.5°C 72.2°F22.3°C 99% 4.8 mph N7.7 kmh N 6.0 mph9.7 kmh 29.72 in1006.4 mb 0.00 in0.0 mm 0.00 in/hr0.0 mm/hr 0.10 in2.5 mm
08:45 AM 72.5°F22.5°C 72.2°F22.3°C 99% 5.0 mph N8.0 kmh N 6.0 mph9.7 kmh 29.72 in1006.4 mb 0.00 in0.0 mm 0.00 in/hr0.0 mm/hr 0.10 in2.5 mm
08:40 AM 72.7°F22.6°C 72.4°F22.4°C 99% 4.6 mph NNE7.4 kmh NNE 6.0 mph9.7 kmh 29.72 in1006.4 mb 0.00 in0.0 mm 0.00 in/hr0.0 mm/hr 0.10 in2.5 mm
08:35 AM 72.9°F22.7°C 72.6°F22.6°C 99% 4.3 mph N6.9 kmh N 6.0 mph9.7 kmh 29.72 in1006.4 mb 0.00 in0.0 mm 0.00 in/hr0.0 mm/hr 0.10 in2.5 mm
08:30 AM 73.2°F22.9°C 73.0°F22.8°C 99% 4.2 mph N6.8 kmh N 6.0 mph9.7 kmh 29.72 in1006.4 mb 0.00 in0.0 mm 0.00 in/hr0.0 mm/hr 0.10 in2.5 mm
08:25 AM 73.6°F23.1°C 73.3°F22.9°C 99% 3.7 mph NNE6.0 kmh NNE 5.4 mph8.7 kmh 29.72 in1006.4 mb 0.00 in0.0 mm 0.00 in/hr0.0 mm/hr 0.10 in2.5 mm
08:20 AM 73.6°F23.1°C 73.3°F22.9°C 99% 2.6 mph NNE4.2 kmh NNE 4.5 mph7.2 kmh 29.72 in1006.4 mb 0.00 in0.0 mm 0.00 in/hr0.0 mm/hr 0.10 in2.5 mm
08:15 AM 73.4°F23.0°C 73.2°F22.9°C 99% 1.5 mph NE2.4 kmh NE 4.5 mph7.2 kmh 29.71 in1006.1 mb 0.00 in0.0 mm 0.00 in/hr0.0 mm/hr 0.10 in2.5 mm
08:10 AM 73.4°F23.0°C 73.2°F22.9°C 99% 1.4 mph NE2.3 kmh NE 2.2 mph3.5 kmh 29.71 in1006.1 mb 0.01 in0.3 mm 0.00 in/hr0.0 mm/hr 0.10 in2.5 mm
08:05 AM 73.2°F22.9°C 73.0°F22.8°C 99% 1.7 mph NNE2.7 kmh NNE 2.2 mph3.5 kmh 29.71 in1006.1 mb 0.03 in0.8 mm 0.00 in/hr0.0 mm/hr 0.10 in2.5 mm
08:00 AM 73.2°F22.9°C 73.0°F22.8°C 99% 2.0 mph NNE3.2 kmh NNE 3.1 mph5.0 kmh 29.71 in1006.1 mb 0.03 in0.8 mm 0.00 in/hr0.0 mm/hr 0.10 in2.5 mm
07:55 AM 73.2°F22.9°C 73.0°F22.8°C 99% 2.5 mph N4.0 kmh N 3.1 mph5.0 kmh 29.71 in1006.1 mb 0.07 in1.8 mm 0.00 in/hr0.0 mm/hr 0.10 in2.5 mm
07:50 AM 73.2°F22.9°C 73.0°F22.8°C 99% 2.4 mph N3.9 kmh N 3.1 mph5.0 kmh 29.71 in1006.1 mb 0.07 in1.8 mm 0.00 in/hr0.0 mm/hr 0.10 in2.5 mm
07:45 AM 72.9°F22.7°C 72.6°F22.6°C 99% 2.7 mph NNE4.3 kmh NNE 4.5 mph7.2 kmh 29.71 in1006.1 mb 0.07 in1.8 mm 0.00 in/hr0.0 mm/hr 0.10 in2.5 mm
07:40 AM 73.0°F22.8°C 72.8°F22.7°C 99% 3.3 mph NNE5.3 kmh NNE 4.5 mph7.2 kmh 29.70 in1005.8 mb 0.07 in1.8 mm 0.00 in/hr0.0 mm/hr 0.10 in2.5 mm
07:35 AM 73.0°F22.8°C 72.8°F22.7°C 99% 3.4 mph NNE5.5 kmh NNE 5.4 mph8.7 kmh 29.70 in1005.8 mb 0.07 in1.8 mm 0.00 in/hr0.0 mm/hr 0.10 in2.5 mm
07:30 AM 73.0°F22.8°C 72.8°F22.7°C 99% 4.2 mph NE6.8 kmh NE 7.6 mph12.2 kmh 29.70 in1005.8 mb 0.07 in1.8 mm 0.00 in/hr0.0 mm/hr 0.10 in2.5 mm
07:25 AM 73.0°F22.8°C 72.8°F22.7°C 99% 5.1 mph NE8.2 kmh NE 10.7 mph17.2 kmh 29.70 in1005.8 mb 0.07 in1.8 mm 0.00 in/hr0.0 mm/hr 0.10 in2.5 mm
07:20 AM 73.0°F22.8°C 72.8°F22.7°C 99% 5.0 mph NE8.0 kmh NE 10.7 mph17.2 kmh 29.69 in1005.4 mb 0.07 in1.8 mm 0.00 in/hr0.0 mm/hr 0.10 in2.5 mm
07:15 AM 73.0°F22.8°C 72.8°F22.7°C 99% 5.1 mph ENE8.2 kmh ENE 9.8 mph15.8 kmh 29.69 in1005.4 mb 0.07 in1.8 mm 0.24 in/hr6.1 mm/hr 0.10 in2.5 mm
07:10 AM 73.4°F23.0°C 73.2°F22.9°C 99% 4.5 mph ENE7.2 kmh ENE 9.8 mph15.8 kmh 29.69 in1005.4 mb 0.05 in1.3 mm 0.24 in/hr6.1 mm/hr 0.08 in2.0 mm
07:05 AM 73.2°F22.9°C 73.0°F22.8°C 99% 3.6 mph NE5.8 kmh NE 6.0 mph9.7 kmh 29.69 in1005.4 mb 0.03 in0.8 mm 0.00 in/hr0.0 mm/hr 0.06 in1.5 mm
07:00 AM 73.2°F22.9°C 73.0°F22.8°C 99% 3.5 mph E5.6 kmh E 6.0 mph9.7 kmh 29.68 in1005.1 mb 0.03 in0.8 mm 0.03 in/hr0.8 mm/hr 0.06 in1.5 mm
06:55 AM 73.2°F22.9°C 73.0°F22.8°C 99% 2.6 mph SE4.2 kmh SE 3.8 mph6.1 kmh 29.68 in1005.1 mb 0.00 in0.0 mm 0.00 in/hr0.0 mm/hr 0.03 in0.8 mm
06:50 AM 73.2°F22.9°C 73.0°F22.8°C 99% 1.3 mph SSE2.1 kmh SSE 3.1 mph5.0 kmh 29.68 in1005.1 mb 0.00 in0.0 mm 0.00 in/hr0.0 mm/hr 0.03 in0.8 mm
06:45 AM 73.2°F22.9°C 73.0°F22.8°C 99% 0.6 mph WNW1.0 kmh WNW 1.6 mph2.6 kmh 29.68 in1005.1 mb 0.00 in0.0 mm 0.00 in/hr0.0 mm/hr 0.03 in0.8 mm
06:40 AM 73.0°F22.8°C 72.8°F22.7°C 99% 1.2 mph S1.9 kmh S 3.1 mph5.0 kmh 29.68 in1005.1 mb 0.00 in0.0 mm 0.00 in/hr0.0 mm/hr 0.03 in0.8 mm
06:35 AM 73.2°F22.9°C 73.0°F22.8°C 99% 2.0 mph WNW3.2 kmh WNW 3.8 mph6.1 kmh 29.68 in1005.1 mb 0.00 in0.0 mm 0.00 in/hr0.0 mm/hr 0.03 in0.8 mm
06:30 AM 73.0°F22.8°C 72.8°F22.7°C 99% 2.3 mph NW3.7 kmh NW 3.8 mph6.1 kmh 29.67 in1004.7 mb 0.00 in0.0 mm 0.00 in/hr0.0 mm/hr 0.03 in0.8 mm
06:25 AM 72.5°F22.5°C 72.2°F22.3°C 99% 1.8 mph NNW2.9 kmh NNW 3.8 mph6.1 kmh 29.67 in1004.7 mb 0.00 in0.0 mm 0.00 in/hr0.0 mm/hr 0.03 in0.8 mm
06:20 AM 72.3°F22.4°C 72.1°F22.3°C 99% 1.0 mph NW1.6 kmh NW 1.6 mph2.6 kmh 29.67 in1004.7 mb 0.00 in0.0 mm 0.00 in/hr0.0 mm/hr 0.03 in0.8 mm
06:15 AM 72.1°F22.3°C 71.9°F22.2°C 99% 0.5 mph NW0.8 kmh NW 1.6 mph2.6 kmh 29.67 in1004.7 mb 0.00 in0.0 mm 0.00 in/hr0.0 mm/hr 0.03 in0.8 mm
06:10 AM 72.0°F22.2°C 71.7°F22.1°C 99% 0.2 mph NNE0.3 kmh NNE 1.6 mph2.6 kmh 29.67 in1004.7 mb 0.00 in0.0 mm 0.00 in/hr0.0 mm/hr 0.03 in0.8 mm
06:05 AM 72.0°F22.2°C 71.7°F22.1°C 99% 0.3 mph NNW0.5 kmh NNW 1.6 mph2.6 kmh 29.66 in1004.4 mb 0.00 in0.0 mm 0.00 in/hr0.0 mm/hr 0.03 in0.8 mm
06:00 AM 72.0°F22.2°C 71.7°F22.1°C 99% 0.4 mph NNW0.6 kmh NNW 1.6 mph2.6 kmh 29.67 in1004.7 mb 0.00 in0.0 mm 0.00 in/hr0.0 mm/hr 0.03 in0.8 mm
05:55 AM 72.0°F22.2°C 71.7°F22.1°C 99% 0.2 mph N0.3 kmh N 0.7 mph1.1 kmh 29.67 in1004.7 mb 0.00 in0.0 mm 0.00 in/hr0.0 mm/hr 0.03 in0.8 mm
05:50 AM 72.0°F22.2°C 71.7°F22.1°C 99% 0.5 mph N0.8 kmh N 0.7 mph1.1 kmh 29.67 in1004.7 mb 0.00 in0.0 mm 0.00 in/hr0.0 mm/hr 0.03 in0.8 mm
05:45 AM 72.1°F22.3°C 71.9°F22.2°C 99% 1.0 mph N1.6 kmh N 1.6 mph2.6 kmh 29.67 in1004.7 mb 0.00 in0.0 mm 0.00 in/hr0.0 mm/hr 0.03 in0.8 mm
05:40 AM 72.1°F22.3°C 71.9°F22.2°C 99% 1.2 mph N1.9 kmh N 1.6 mph2.6 kmh 29.67 in1004.7 mb 0.00 in0.0 mm 0.00 in/hr0.0 mm/hr 0.03 in0.8 mm
05:35 AM 72.1°F22.3°C 71.9°F22.2°C 99% 1.1 mph N1.8 kmh N 1.6 mph2.6 kmh 29.67 in1004.7 mb 0.00 in0.0 mm 0.00 in/hr0.0 mm/hr 0.03 in0.8 mm
05:30 AM 72.3°F22.4°C 72.1°F22.3°C 99% 0.9 mph N1.4 kmh N 1.6 mph2.6 kmh 29.67 in1004.7 mb 0.00 in0.0 mm 0.00 in/hr0.0 mm/hr 0.03 in0.8 mm
05:25 AM 72.1°F22.3°C 71.9°F22.2°C 99% 0.4 mph N0.6 kmh N 1.6 mph2.6 kmh 29.67 in1004.7 mb 0.00 in0.0 mm 0.00 in/hr0.0 mm/hr 0.03 in0.8 mm
05:20 AM 72.3°F22.4°C 72.1°F22.3°C 99% Calm Calm -- 29.67 in1004.7 mb 0.00 in0.0 mm 0.00 in/hr0.0 mm/hr 0.03 in0.8 mm
05:15 AM 72.1°F22.3°C 71.9°F22.2°C 99% Calm Calm -- 29.67 in1004.7 mb 0.01 in0.3 mm 0.00 in/hr0.0 mm/hr 0.03 in0.8 mm
05:10 AM 72.1°F22.3°C 71.9°F22.2°C 99% Calm Calm -- 29.67 in1004.7 mb 0.01 in0.3 mm 0.00 in/hr0.0 mm/hr 0.03 in0.8 mm
05:05 AM 72.3°F22.4°C 72.1°F22.3°C 99% Calm Calm -- 29.67 in1004.7 mb 0.01 in0.3 mm 0.00 in/hr0.0 mm/hr 0.03 in0.8 mm
05:00 AM 72.3°F22.4°C 72.1°F22.3°C 99% 0.2 mph SE0.3 kmh SE 0.7 mph1.1 kmh 29.67 in1004.7 mb 0.01 in0.3 mm 0.00 in/hr0.0 mm/hr 0.03 in0.8 mm
04:55 AM 72.3°F22.4°C 72.1°F22.3°C 99% 0.2 mph SE0.3 kmh SE 0.7 mph1.1 kmh 29.66 in1004.4 mb 0.01 in0.3 mm 0.00 in/hr0.0 mm/hr 0.03 in0.8 mm
04:50 AM 72.3°F22.4°C 72.1°F22.3°C 99% 0.1 mph NW0.2 kmh NW 0.7 mph1.1 kmh 29.67 in1004.7 mb 0.01 in0.3 mm 0.00 in/hr0.0 mm/hr 0.03 in0.8 mm
04:45 AM 72.3°F22.4°C 72.1°F22.3°C 99% 0.3 mph NE0.5 kmh NE 0.7 mph1.1 kmh 29.68 in1005.1 mb 0.01 in0.3 mm 0.00 in/hr0.0 mm/hr 0.03 in0.8 mm
04:40 AM 72.5°F22.5°C 72.2°F22.3°C 99% 0.6 mph ENE1.0 kmh ENE 1.6 mph2.6 kmh 29.67 in1004.7 mb 0.01 in0.3 mm 0.00 in/hr0.0 mm/hr 0.03 in0.8 mm
04:35 AM 72.7°F22.6°C 72.4°F22.4°C 99% 1.5 mph NE2.4 kmh NE 3.8 mph6.1 kmh 29.67 in1004.7 mb 0.01 in0.3 mm 0.00 in/hr0.0 mm/hr 0.03 in0.8 mm
04:30 AM 72.7°F22.6°C 72.4°F22.4°C 99% 3.1 mph NE5.0 kmh NE 5.4 mph8.7 kmh 29.66 in1004.4 mb 0.01 in0.3 mm 0.00 in/hr0.0 mm/hr 0.03 in0.8 mm
04:25 AM 72.7°F22.6°C 72.4°F22.4°C 99% 4.4 mph NE7.1 kmh NE 6.9 mph11.1 kmh 29.67 in1004.7 mb 0.01 in0.3 mm 0.00 in/hr0.0 mm/hr 0.03 in0.8 mm
04:20 AM 72.5°F22.5°C 72.2°F22.3°C 99% 4.5 mph NE7.2 kmh NE 6.9 mph11.1 kmh 29.67 in1004.7 mb 0.01 in0.3 mm 0.12 in/hr3.0 mm/hr 0.03 in0.8 mm
04:15 AM 72.3°F22.4°C 72.1°F22.3°C 99% 3.1 mph NNE5.0 kmh NNE 6.0 mph9.7 kmh 29.67 in1004.7 mb 0.00 in0.0 mm 0.00 in/hr0.0 mm/hr 0.02 in0.5 mm
04:10 AM 72.5°F22.5°C 72.2°F22.3°C 99% 1.8 mph N2.9 kmh N 3.1 mph5.0 kmh 29.67 in1004.7 mb 0.00 in0.0 mm 0.00 in/hr0.0 mm/hr 0.02 in0.5 mm
04:05 AM 72.5°F22.5°C 72.2°F22.3°C 99% 1.7 mph N2.7 kmh N 3.8 mph6.1 kmh 29.67 in1004.7 mb 0.00 in0.0 mm 0.00 in/hr0.0 mm/hr 0.02 in0.5 mm
04:00 AM 72.5°F22.5°C 72.2°F22.3°C 99% 1.9 mph NNE3.1 kmh NNE 3.8 mph6.1 kmh 29.67 in1004.7 mb 0.00 in0.0 mm 0.00 in/hr0.0 mm/hr 0.02 in0.5 mm
03:55 AM 72.7°F22.6°C 72.4°F22.4°C 99% 1.7 mph NE2.7 kmh NE 3.1 mph5.0 kmh 29.67 in1004.7 mb 0.00 in0.0 mm 0.00 in/hr0.0 mm/hr 0.02 in0.5 mm
03:50 AM 72.7°F22.6°C 72.4°F22.4°C 99% 2.2 mph NE3.5 kmh NE 4.5 mph7.2 kmh 29.67 in1004.7 mb 0.00 in0.0 mm 0.00 in/hr0.0 mm/hr 0.02 in0.5 mm
03:45 AM 72.7°F22.6°C 72.4°F22.4°C 99% 2.8 mph NNE4.5 kmh NNE 4.5 mph7.2 kmh 29.67 in1004.7 mb 0.00 in0.0 mm 0.00 in/hr0.0 mm/hr 0.02 in0.5 mm
03:40 AM 72.7°F22.6°C 72.4°F22.4°C 99% 2.3 mph NE3.7 kmh NE 3.1 mph5.0 kmh 29.67 in1004.7 mb 0.00 in0.0 mm 0.00 in/hr0.0 mm/hr 0.02 in0.5 mm
03:35 AM 72.5°F22.5°C 72.2°F22.3°C 99% 1.7 mph ENE2.7 kmh ENE 3.1 mph5.0 kmh 29.67 in1004.7 mb 0.00 in0.0 mm 0.00 in/hr0.0 mm/hr 0.02 in0.5 mm
03:30 AM 72.5°F22.5°C 72.2°F22.3°C 99% 1.0 mph ENE1.6 kmh ENE 2.2 mph3.5 kmh 29.67 in1004.7 mb 0.00 in0.0 mm 0.00 in/hr0.0 mm/hr 0.02 in0.5 mm
03:25 AM 72.3°F22.4°C 72.1°F22.3°C 99% 0.7 mph ESE1.1 kmh ESE 2.2 mph3.5 kmh 29.67 in1004.7 mb 0.00 in0.0 mm 0.00 in/hr0.0 mm/hr 0.02 in0.5 mm
03:20 AM 72.3°F22.4°C 72.1°F22.3°C 99% 0.5 mph SE0.8 kmh SE 2.2 mph3.5 kmh 29.67 in1004.7 mb 0.00 in0.0 mm 0.00 in/hr0.0 mm/hr 0.02 in0.5 mm
03:15 AM 72.1°F22.3°C 71.9°F22.2°C 99% 0.5 mph SE0.8 kmh SE 2.2 mph3.5 kmh 29.67 in1004.7 mb 0.00 in0.0 mm 0.00 in/hr0.0 mm/hr 0.02 in0.5 mm
03:10 AM 72.0°F22.2°C 71.7°F22.1°C 99% 1.2 mph SE1.9 kmh SE 1.6 mph2.6 kmh 29.67 in1004.7 mb 0.00 in0.0 mm 0.00 in/hr0.0 mm/hr 0.02 in0.5 mm
03:05 AM 71.8°F22.1°C 71.5°F21.9°C 99% 1.0 mph SE1.6 kmh SE 1.6 mph2.6 kmh 29.67 in1004.7 mb 0.00 in0.0 mm 0.00 in/hr0.0 mm/hr 0.02 in0.5 mm
03:00 AM 71.8°F22.1°C 71.5°F21.9°C 99% 0.6 mph SE1.0 kmh SE 1.6 mph2.6 kmh 29.67 in1004.7 mb 0.00 in0.0 mm 0.00 in/hr0.0 mm/hr 0.02 in0.5 mm
02:55 AM 71.6°F22.0°C 71.3°F21.8°C 99% 0.6 mph E1.0 kmh E 0.7 mph1.1 kmh 29.67 in1004.7 mb 0.00 in0.0 mm 0.00 in/hr0.0 mm/hr 0.02 in0.5 mm
02:50 AM 71.4°F21.9°C 71.2°F21.8°C 99% 0.4 mph ESE0.6 kmh ESE 0.7 mph1.1 kmh 29.66 in1004.4 mb 0.00 in0.0 mm 0.00 in/hr0.0 mm/hr 0.02 in0.5 mm
02:45 AM 71.4°F21.9°C 71.2°F21.8°C 99% 0.7 mph ESE1.1 kmh ESE 1.6 mph2.6 kmh 29.67 in1004.7 mb 0.00 in0.0 mm 0.00 in/hr0.0 mm/hr 0.02 in0.5 mm
02:40 AM 71.4°F21.9°C 71.2°F21.8°C 99% 1.1 mph ESE1.8 kmh ESE 1.6 mph2.6 kmh 29.67 in1004.7 mb 0.00 in0.0 mm 0.00 in/hr0.0 mm/hr 0.02 in0.5 mm
02:35 AM 71.4°F21.9°C 71.2°F21.8°C 99% 1.0 mph SE1.6 kmh SE 1.6 mph2.6 kmh 29.67 in1004.7 mb 0.00 in0.0 mm 0.00 in/hr0.0 mm/hr 0.02 in0.5 mm
02:30 AM 71.2°F21.8°C 71.0°F21.7°C 99% 0.9 mph SE1.4 kmh SE 2.2 mph3.5 kmh 29.67 in1004.7 mb 0.00 in0.0 mm 0.00 in/hr0.0 mm/hr 0.02 in0.5 mm
02:25 AM 71.2°F21.8°C 71.0°F21.7°C 99% 1.4 mph ESE2.3 kmh ESE 2.2 mph3.5 kmh 29.67 in1004.7 mb 0.00 in0.0 mm 0.00 in/hr0.0 mm/hr 0.02 in0.5 mm
02:20 AM 71.1°F21.7°C 70.8°F21.6°C 99% 1.7 mph E2.7 kmh E 3.1 mph5.0 kmh 29.67 in1004.7 mb 0.00 in0.0 mm 0.00 in/hr0.0 mm/hr 0.02 in0.5 mm
02:15 AM 71.1°F21.7°C 70.8°F21.6°C 99% 1.8 mph E2.9 kmh E 3.1 mph5.0 kmh 29.67 in1004.7 mb 0.00 in0.0 mm 0.00 in/hr0.0 mm/hr 0.02 in0.5 mm
02:10 AM 71.1°F21.7°C 70.8°F21.6°C 99% 1.7 mph SSE2.7 kmh SSE 3.1 mph5.0 kmh 29.67 in1004.7 mb 0.00 in0.0 mm 0.00 in/hr0.0 mm/hr 0.02 in0.5 mm
02:05 AM 71.1°F21.7°C 70.8°F21.6°C 99% 1.4 mph SSE2.3 kmh SSE 2.2 mph3.5 kmh 29.68 in1005.1 mb 0.00 in0.0 mm 0.00 in/hr0.0 mm/hr 0.02 in0.5 mm
02:00 AM 71.1°F21.7°C 70.8°F21.6°C 99% 1.2 mph E1.9 kmh E 2.2 mph3.5 kmh 29.68 in1005.1 mb 0.00 in0.0 mm 0.00 in/hr0.0 mm/hr 0.02 in0.5 mm
01:55 AM 71.1°F21.7°C 70.8°F21.6°C 99% 1.4 mph ENE2.3 kmh ENE 3.1 mph5.0 kmh 29.67 in1004.7 mb 0.00 in0.0 mm 0.00 in/hr0.0 mm/hr 0.02 in0.5 mm
01:50 AM 71.2°F21.8°C 71.0°F21.7°C 99% 1.8 mph ENE2.9 kmh ENE 3.1 mph5.0 kmh 29.67 in1004.7 mb 0.00 in0.0 mm 0.00 in/hr0.0 mm/hr 0.02 in0.5 mm
01:45 AM 71.2°F21.8°C 71.0°F21.7°C 99% 2.2 mph E3.5 kmh E 3.8 mph6.1 kmh 29.68 in1005.1 mb 0.00 in0.0 mm 0.00 in/hr0.0 mm/hr 0.02 in0.5 mm
01:40 AM 71.4°F21.9°C 71.2°F21.8°C 99% 2.3 mph E3.7 kmh E 3.8 mph6.1 kmh 29.68 in1005.1 mb 0.00 in0.0 mm 0.00 in/hr0.0 mm/hr 0.02 in0.5 mm
01:35 AM 71.2°F21.8°C 71.0°F21.7°C 99% 2.5 mph NE4.0 kmh NE 5.4 mph8.7 kmh 29.68 in1005.1 mb 0.00 in0.0 mm 0.00 in/hr0.0 mm/hr 0.02 in0.5 mm
01:30 AM 71.6°F22.0°C 71.3°F21.8°C 99% 2.6 mph NNE4.2 kmh NNE 5.4 mph8.7 kmh 29.68 in1005.1 mb 0.00 in0.0 mm 0.00 in/hr0.0 mm/hr 0.02 in0.5 mm
01:25 AM 72.1°F22.3°C 71.9°F22.2°C 99% 2.8 mph N4.5 kmh N 5.4 mph8.7 kmh 29.68 in1005.1 mb 0.00 in0.0 mm 0.00 in/hr0.0 mm/hr 0.02 in0.5 mm
01:20 AM 72.3°F22.4°C 72.1°F22.3°C 99% 3.4 mph N5.5 kmh N 5.4 mph8.7 kmh 29.68 in1005.1 mb 0.00 in0.0 mm 0.00 in/hr0.0 mm/hr 0.02 in0.5 mm
01:15 AM 72.7°F22.6°C 72.4°F22.4°C 99% 2.8 mph N4.5 kmh N 7.6 mph12.2 kmh 29.68 in1005.1 mb 0.00 in0.0 mm 0.00 in/hr0.0 mm/hr 0.02 in0.5 mm
01:10 AM 73.0°F22.8°C 72.8°F22.7°C 99% 1.2 mph NNE1.9 kmh NNE 7.6 mph12.2 kmh 29.69 in1005.4 mb 0.00 in0.0 mm 0.00 in/hr0.0 mm/hr 0.02 in0.5 mm
01:05 AM 73.4°F23.0°C 73.2°F22.9°C 99% 0.3 mph WNW0.5 kmh WNW 0.7 mph1.1 kmh 29.68 in1005.1 mb 0.01 in0.3 mm 0.00 in/hr0.0 mm/hr 0.02 in0.5 mm
01:00 AM 73.4°F23.0°C 73.2°F22.9°C 99% 0.4 mph NW0.6 kmh NW 0.7 mph1.1 kmh 29.69 in1005.4 mb 0.01 in0.3 mm 0.00 in/hr0.0 mm/hr 0.02 in0.5 mm
12:55 AM 73.4°F23.0°C 73.2°F22.9°C 99% 1.0 mph N1.6 kmh N 2.2 mph3.5 kmh 29.69 in1005.4 mb 0.01 in0.3 mm 0.00 in/hr0.0 mm/hr 0.02 in0.5 mm
12:50 AM 73.6°F23.1°C 73.3°F22.9°C 99% 1.6 mph NW2.6 kmh NW 2.2 mph3.5 kmh 29.69 in1005.4 mb 0.03 in0.8 mm 0.00 in/hr0.0 mm/hr 0.02 in0.5 mm
12:45 AM 73.4°F23.0°C 73.2°F22.9°C 99% 1.3 mph NW2.1 kmh NW 2.2 mph3.5 kmh 29.69 in1005.4 mb 0.07 in1.8 mm 0.00 in/hr0.0 mm/hr 0.02 in0.5 mm
12:40 AM 73.4°F23.0°C 73.2°F22.9°C 99% 1.2 mph NNW1.9 kmh NNW 2.2 mph3.5 kmh 29.69 in1005.4 mb 0.16 in4.1 mm 0.00 in/hr0.0 mm/hr 0.02 in0.5 mm
12:35 AM 73.4°F23.0°C 73.2°F22.9°C 99% 1.3 mph NW2.1 kmh NW 2.2 mph3.5 kmh 29.69 in1005.4 mb 0.21 in5.3 mm 0.00 in/hr0.0 mm/hr 0.02 in0.5 mm
12:30 AM 73.4°F23.0°C 73.2°F22.9°C 99% 1.3 mph NW2.1 kmh NW 2.2 mph3.5 kmh 29.69 in1005.4 mb 0.34 in8.6 mm 0.00 in/hr0.0 mm/hr 0.02 in0.5 mm
12:25 AM 73.4°F23.0°C 73.2°F22.9°C 99% 0.9 mph NW1.4 kmh NW 2.2 mph3.5 kmh 29.69 in1005.4 mb 0.37 in9.4 mm 0.00 in/hr0.0 mm/hr 0.02 in0.5 mm
12:20 AM 73.6°F23.1°C 73.3°F22.9°C 99% 0.9 mph NW1.4 kmh NW 2.2 mph3.5 kmh 29.70 in1005.8 mb 0.37 in9.4 mm 0.00 in/hr0.0 mm/hr 0.02 in0.5 mm
12:15 AM 73.6°F23.1°C 73.3°F22.9°C 99% 1.1 mph NW1.8 kmh NW 2.2 mph3.5 kmh 29.70 in1005.8 mb 0.37 in9.4 mm 0.00 in/hr0.0 mm/hr 0.02 in0.5 mm
12:10 AM 73.4°F23.0°C 73.2°F22.9°C 99% 0.8 mph NW1.3 kmh NW 1.6 mph2.6 kmh 29.70 in1005.8 mb 0.37 in9.4 mm 0.12 in/hr3.0 mm/hr 0.02 in0.5 mm
12:05 AM 73.4°F23.0°C 73.2°F22.9°C 99% 1.6 mph NNW2.6 kmh NNW 3.1 mph5.0 kmh 29.70 in1005.8 mb 0.36 in9.1 mm 0.00 in/hr0.0 mm/hr 0.36 in9.1 mm
12:00 AM 73.4°F23.0°C 73.2°F22.9°C 99% 2.1 mph N3.4 kmh N 3.1 mph5.0 kmh 29.70 in1005.8 mb 0.36 in9.1 mm 0.00 in/hr0.0 mm/hr 0.36 in9.1 mm